sensor_id;sensor_type;location;lat;lon;timestamp;P1;durP1;ratioP1;P2;durP2;ratioP2
23676;SDS011;31493;49.058;12.190;2023-04-24T00:00:29;5.82;;;4.97;;
23676;SDS011;31493;49.058;12.190;2023-04-24T00:02:58;6.35;;;4.63;;
23676;SDS011;31493;49.058;12.190;2023-04-24T00:05:25;8.00;;;4.97;;
23676;SDS011;31493;49.058;12.190;2023-04-24T00:07:52;7.47;;;4.75;;
23676;SDS011;31493;49.058;12.190;2023-04-24T00:10:19;7.90;;;4.80;;
23676;SDS011;31493;49.058;12.190;2023-04-24T00:12:47;6.32;;;5.47;;
23676;SDS011;31493;49.058;12.190;2023-04-24T00:15:14;8.32;;;5.63;;
23676;SDS011;31493;49.058;12.190;2023-04-24T00:17:41;8.93;;;6.07;;
23676;SDS011;31493;49.058;12.190;2023-04-24T00:20:10;9.57;;;5.90;;
23676;SDS011;31493;49.058;12.190;2023-04-24T00:22:37;10.77;;;6.20;;
23676;SDS011;31493;49.058;12.190;2023-04-24T00:25:04;9.55;;;6.35;;
23676;SDS011;31493;49.058;12.190;2023-04-24T00:27:32;7.73;;;6.20;;
23676;SDS011;31493;49.058;12.190;2023-04-24T00:30:00;7.23;;;5.97;;
23676;SDS011;31493;49.058;12.190;2023-04-24T00:32:28;9.73;;;6.47;;
23676;SDS011;31493;49.058;12.190;2023-04-24T00:34:55;7.38;;;6.57;;
23676;SDS011;31493;49.058;12.190;2023-04-24T00:37:23;9.55;;;7.00;;
23676;SDS011;31493;49.058;12.190;2023-04-24T00:39:50;10.23;;;6.90;;
23676;SDS011;31493;49.058;12.190;2023-04-24T00:42:17;10.73;;;9.50;;
23676;SDS011;31493;49.058;12.190;2023-04-24T00:44:45;12.43;;;8.70;;
23676;SDS011;31493;49.058;12.190;2023-04-24T00:47:12;8.65;;;7.47;;
23676;SDS011;31493;49.058;12.190;2023-04-24T00:49:40;10.20;;;8.85;;
23676;SDS011;31493;49.058;12.190;2023-04-24T00:52:07;18.48;;;10.45;;
23676;SDS011;31493;49.058;12.190;2023-04-24T00:54:35;12.00;;;9.80;;
23676;SDS011;31493;49.058;12.190;2023-04-24T00:57:03;10.52;;;8.43;;
23676;SDS011;31493;49.058;12.190;2023-04-24T00:59:30;9.88;;;8.13;;
23676;SDS011;31493;49.058;12.190;2023-04-24T01:01:58;10.63;;;9.52;;
23676;SDS011;31493;49.058;12.190;2023-04-24T01:04:25;9.90;;;8.82;;
23676;SDS011;31493;49.058;12.190;2023-04-24T01:06:52;10.90;;;9.02;;
23676;SDS011;31493;49.058;12.190;2023-04-24T01:09:22;10.10;;;9.10;;
23676;SDS011;31493;49.058;12.190;2023-04-24T01:11:51;11.70;;;9.80;;
23676;SDS011;31493;49.058;12.190;2023-04-24T01:14:18;10.57;;;8.38;;
23676;SDS011;31493;49.058;12.190;2023-04-24T01:16:46;13.13;;;9.85;;
23676;SDS011;31493;49.058;12.190;2023-04-24T01:19:13;10.50;;;8.90;;
23676;SDS011;31493;49.058;12.190;2023-04-24T01:21:43;9.02;;;8.05;;
23676;SDS011;31493;49.058;12.190;2023-04-24T01:24:15;12.68;;;9.50;;
23676;SDS011;31493;49.058;12.190;2023-04-24T01:26:44;8.90;;;8.00;;
23676;SDS011;31493;49.058;12.190;2023-04-24T01:29:11;9.48;;;7.95;;
23676;SDS011;31493;49.058;12.190;2023-04-24T01:31:38;11.13;;;7.88;;
23676;SDS011;31493;49.058;12.190;2023-04-24T01:34:06;9.60;;;7.47;;
23676;SDS011;31493;49.058;12.190;2023-04-24T01:36:34;11.85;;;8.73;;
23676;SDS011;31493;49.058;12.190;2023-04-24T01:39:02;9.00;;;8.10;;
23676;SDS011;31493;49.058;12.190;2023-04-24T01:41:30;9.48;;;7.82;;
23676;SDS011;31493;49.058;12.190;2023-04-24T01:43:58;8.70;;;7.40;;
23676;SDS011;31493;49.058;12.190;2023-04-24T01:46:25;8.55;;;7.45;;
23676;SDS011;31493;49.058;12.190;2023-04-24T01:48:53;9.43;;;8.52;;
23676;SDS011;31493;49.058;12.190;2023-04-24T01:51:20;14.00;;;10.40;;
23676;SDS011;31493;49.058;12.190;2023-04-24T01:53:47;11.23;;;10.00;;
23676;SDS011;31493;49.058;12.190;2023-04-24T01:56:14;12.25;;;11.05;;
23676;SDS011;31493;49.058;12.190;2023-04-24T01:58:43;12.88;;;11.57;;
23676;SDS011;31493;49.058;12.190;2023-04-24T02:01:14;15.95;;;12.82;;
23676;SDS011;31493;49.058;12.190;2023-04-24T02:03:42;15.77;;;13.05;;
23676;SDS011;31493;49.058;12.190;2023-04-24T02:06:09;15.65;;;13.77;;
23676;SDS011;31493;49.058;12.190;2023-04-24T02:08:36;15.07;;;13.48;;
23676;SDS011;31493;49.058;12.190;2023-04-24T02:11:03;17.33;;;13.38;;
23676;SDS011;31493;49.058;12.190;2023-04-24T02:13:31;17.80;;;15.85;;
23676;SDS011;31493;49.058;12.190;2023-04-24T02:16:00;16.80;;;14.23;;
23676;SDS011;31493;49.058;12.190;2023-04-24T02:18:27;17.80;;;15.02;;
23676;SDS011;31493;49.058;12.190;2023-04-24T02:20:54;17.50;;;14.63;;
23676;SDS011;31493;49.058;12.190;2023-04-24T02:23:21;17.77;;;15.88;;
23676;SDS011;31493;49.058;12.190;2023-04-24T02:25:48;15.23;;;13.63;;
23676;SDS011;31493;49.058;12.190;2023-04-24T02:28:15;16.65;;;14.82;;
23676;SDS011;31493;49.058;12.190;2023-04-24T02:30:42;19.65;;;14.70;;
23676;SDS011;31493;49.058;12.190;2023-04-24T02:33:10;18.95;;;14.73;;
23676;SDS011;31493;49.058;12.190;2023-04-24T02:35:38;17.83;;;14.98;;
23676;SDS011;31493;49.058;12.190;2023-04-24T02:38:05;16.00;;;14.15;;
23676;SDS011;31493;49.058;12.190;2023-04-24T02:40:32;17.08;;;15.18;;
23676;SDS011;31493;49.058;12.190;2023-04-24T02:42:59;17.85;;;14.75;;
23676;SDS011;31493;49.058;12.190;2023-04-24T02:45:26;16.30;;;14.27;;
23676;SDS011;31493;49.058;12.190;2023-04-24T02:47:53;16.30;;;14.57;;
23676;SDS011;31493;49.058;12.190;2023-04-24T02:50:21;18.67;;;13.45;;
23676;SDS011;31493;49.058;12.190;2023-04-24T02:52:48;16.20;;;14.35;;
23676;SDS011;31493;49.058;12.190;2023-04-24T02:55:15;19.63;;;13.73;;
23676;SDS011;31493;49.058;12.190;2023-04-24T02:57:42;15.18;;;13.30;;
23676;SDS011;31493;49.058;12.190;2023-04-24T03:00:10;14.82;;;12.50;;
23676;SDS011;31493;49.058;12.190;2023-04-24T03:05:05;14.90;;;12.48;;
23676;SDS011;31493;49.058;12.190;2023-04-24T03:07:34;13.80;;;11.90;;
23676;SDS011;31493;49.058;12.190;2023-04-24T03:12:30;14.35;;;11.38;;
23676;SDS011;31493;49.058;12.190;2023-04-24T03:14:57;12.52;;;10.73;;
23676;SDS011;31493;49.058;12.190;2023-04-24T03:17:24;15.27;;;11.85;;
23676;SDS011;31493;49.058;12.190;2023-04-24T03:19:51;13.70;;;11.40;;
23676;SDS011;31493;49.058;12.190;2023-04-24T03:22:18;12.75;;;11.13;;
23676;SDS011;31493;49.058;12.190;2023-04-24T03:24:46;12.07;;;10.88;;
23676;SDS011;31493;49.058;12.190;2023-04-24T03:27:13;13.25;;;11.10;;
23676;SDS011;31493;49.058;12.190;2023-04-24T03:29:40;11.88;;;10.68;;
23676;SDS011;31493;49.058;12.190;2023-04-24T03:32:07;13.05;;;10.35;;
23676;SDS011;31493;49.058;12.190;2023-04-24T03:34:34;13.23;;;11.40;;
23676;SDS011;31493;49.058;12.190;2023-04-24T03:37:01;12.55;;;10.43;;
23676;SDS011;31493;49.058;12.190;2023-04-24T03:39:28;13.40;;;10.43;;
23676;SDS011;31493;49.058;12.190;2023-04-24T03:41:57;11.98;;;10.32;;
23676;SDS011;31493;49.058;12.190;2023-04-24T03:44:24;11.23;;;9.52;;
23676;SDS011;31493;49.058;12.190;2023-04-24T03:46:51;12.90;;;9.35;;
23676;SDS011;31493;49.058;12.190;2023-04-24T03:49:18;11.00;;;9.40;;
23676;SDS011;31493;49.058;12.190;2023-04-24T03:51:46;13.20;;;8.82;;
23676;SDS011;31493;49.058;12.190;2023-04-24T03:54:13;13.95;;;9.00;;
23676;SDS011;31493;49.058;12.190;2023-04-24T03:56:40;10.65;;;8.02;;
23676;SDS011;31493;49.058;12.190;2023-04-24T03:59:08;10.27;;;8.30;;
23676;SDS011;31493;49.058;12.190;2023-04-24T04:01:35;10.50;;;7.85;;
23676;SDS011;31493;49.058;12.190;2023-04-24T04:04:03;9.75;;;7.72;;
23676;SDS011;31493;49.058;12.190;2023-04-24T04:06:30;10.00;;;8.68;;
23676;SDS011;31493;49.058;12.190;2023-04-24T04:08:58;9.50;;;8.30;;
23676;SDS011;31493;49.058;12.190;2023-04-24T04:11:25;8.93;;;7.78;;
23676;SDS011;31493;49.058;12.190;2023-04-24T04:13:52;8.85;;;7.90;;
23676;SDS011;31493;49.058;12.190;2023-04-24T04:16:21;11.10;;;7.82;;
23676;SDS011;31493;49.058;12.190;2023-04-24T04:18:48;9.98;;;8.15;;
23676;SDS011;31493;49.058;12.190;2023-04-24T04:21:15;8.50;;;7.07;;
23676;SDS011;31493;49.058;12.190;2023-04-24T04:23:42;8.45;;;7.30;;
23676;SDS011;31493;49.058;12.190;2023-04-24T04:26:10;8.20;;;7.32;;
23676;SDS011;31493;49.058;12.190;2023-04-24T04:28:38;10.43;;;8.30;;
23676;SDS011;31493;49.058;12.190;2023-04-24T04:31:05;9.20;;;8.07;;
23676;SDS011;31493;49.058;12.190;2023-04-24T04:33:35;8.43;;;7.53;;
23676;SDS011;31493;49.058;12.190;2023-04-24T04:36:03;10.15;;;7.78;;
23676;SDS011;31493;49.058;12.190;2023-04-24T04:38:31;10.45;;;8.00;;
23676;SDS011;31493;49.058;12.190;2023-04-24T04:40:59;9.35;;;8.02;;
23676;SDS011;31493;49.058;12.190;2023-04-24T04:43:26;10.65;;;8.20;;
23676;SDS011;31493;49.058;12.190;2023-04-24T04:45:53;10.05;;;8.07;;
23676;SDS011;31493;49.058;12.190;2023-04-24T04:48:21;8.32;;;7.40;;
23676;SDS011;31493;49.058;12.190;2023-04-24T04:50:49;9.88;;;8.25;;
23676;SDS011;31493;49.058;12.190;2023-04-24T04:53:16;8.77;;;7.55;;
23676;SDS011;31493;49.058;12.190;2023-04-24T04:55:44;9.85;;;8.50;;
23676;SDS011;31493;49.058;12.190;2023-04-24T04:58:11;8.75;;;7.85;;
23676;SDS011;31493;49.058;12.190;2023-04-24T05:00:38;9.07;;;8.10;;
23676;SDS011;31493;49.058;12.190;2023-04-24T05:03:07;9.87;;;8.03;;
23676;SDS011;31493;49.058;12.190;2023-04-24T05:05:34;9.18;;;7.93;;
23676;SDS011;31493;49.058;12.190;2023-04-24T05:08:02;11.18;;;7.90;;
23676;SDS011;31493;49.058;12.190;2023-04-24T05:10:29;10.80;;;7.93;;
23676;SDS011;31493;49.058;12.190;2023-04-24T05:12:56;9.25;;;8.25;;
23676;SDS011;31493;49.058;12.190;2023-04-24T05:15:23;9.82;;;8.23;;
23676;SDS011;31493;49.058;12.190;2023-04-24T05:17:50;10.20;;;7.65;;
23676;SDS011;31493;49.058;12.190;2023-04-24T05:20:17;10.25;;;8.57;;
23676;SDS011;31493;49.058;12.190;2023-04-24T05:22:44;7.30;;;6.43;;
23676;SDS011;31493;49.058;12.190;2023-04-24T05:25:12;7.57;;;6.80;;
23676;SDS011;31493;49.058;12.190;2023-04-24T05:27:39;7.85;;;6.63;;
23676;SDS011;31493;49.058;12.190;2023-04-24T05:30:07;7.47;;;5.80;;
23676;SDS011;31493;49.058;12.190;2023-04-24T05:32:35;8.47;;;6.20;;
23676;SDS011;31493;49.058;12.190;2023-04-24T05:35:02;9.73;;;6.97;;
23676;SDS011;31493;49.058;12.190;2023-04-24T05:37:29;7.47;;;6.38;;
23676;SDS011;31493;49.058;12.190;2023-04-24T05:39:56;8.63;;;6.63;;
23676;SDS011;31493;49.058;12.190;2023-04-24T05:42:25;8.57;;;6.50;;
23676;SDS011;31493;49.058;12.190;2023-04-24T05:44:51;5.85;;;5.22;;
23676;SDS011;31493;49.058;12.190;2023-04-24T05:47:20;6.25;;;5.03;;
23676;SDS011;31493;49.058;12.190;2023-04-24T05:49:48;5.68;;;4.90;;
23676;SDS011;31493;49.058;12.190;2023-04-24T05:52:15;7.65;;;4.90;;
23676;SDS011;31493;49.058;12.190;2023-04-24T05:54:42;6.65;;;4.90;;
23676;SDS011;31493;49.058;12.190;2023-04-24T05:57:09;9.82;;;4.50;;
23676;SDS011;31493;49.058;12.190;2023-04-24T05:59:37;7.13;;;5.07;;
23676;SDS011;31493;49.058;12.190;2023-04-24T06:02:05;6.22;;;4.65;;
23676;SDS011;31493;49.058;12.190;2023-04-24T06:04:32;10.70;;;4.65;;
23676;SDS011;31493;49.058;12.190;2023-04-24T06:06:59;7.28;;;4.80;;
23676;SDS011;31493;49.058;12.190;2023-04-24T06:09:26;9.80;;;3.92;;
23676;SDS011;31493;49.058;12.190;2023-04-24T06:11:53;9.43;;;5.00;;
23676;SDS011;31493;49.058;12.190;2023-04-24T06:14:22;6.13;;;3.95;;
23676;SDS011;31493;49.058;12.190;2023-04-24T06:16:50;6.13;;;4.50;;
23676;SDS011;31493;49.058;12.190;2023-04-24T06:19:17;8.18;;;4.47;;
23676;SDS011;31493;49.058;12.190;2023-04-24T06:21:44;7.00;;;4.70;;
23676;SDS011;31493;49.058;12.190;2023-04-24T06:24:13;7.38;;;4.57;;
23676;SDS011;31493;49.058;12.190;2023-04-24T06:26:40;7.78;;;4.40;;
23676;SDS011;31493;49.058;12.190;2023-04-24T06:29:08;8.90;;;3.88;;
23676;SDS011;31493;49.058;12.190;2023-04-24T06:31:35;9.13;;;3.85;;
23676;SDS011;31493;49.058;12.190;2023-04-24T06:34:03;7.63;;;3.90;;
23676;SDS011;31493;49.058;12.190;2023-04-24T06:36:31;7.22;;;4.10;;
23676;SDS011;31493;49.058;12.190;2023-04-24T06:39:00;10.18;;;4.38;;
23676;SDS011;31493;49.058;12.190;2023-04-24T06:41:27;6.07;;;4.30;;
23676;SDS011;31493;49.058;12.190;2023-04-24T06:43:55;8.50;;;4.38;;
23676;SDS011;31493;49.058;12.190;2023-04-24T06:46:22;5.05;;;3.70;;
23676;SDS011;31493;49.058;12.190;2023-04-24T06:48:51;6.13;;;3.83;;
23676;SDS011;31493;49.058;12.190;2023-04-24T06:51:23;6.93;;;4.07;;
23676;SDS011;31493;49.058;12.190;2023-04-24T06:53:50;7.63;;;4.28;;
23676;SDS011;31493;49.058;12.190;2023-04-24T06:56:18;4.72;;;3.70;;
23676;SDS011;31493;49.058;12.190;2023-04-24T06:58:45;10.55;;;4.15;;
23676;SDS011;31493;49.058;12.190;2023-04-24T07:01:12;9.18;;;3.80;;
23676;SDS011;31493;49.058;12.190;2023-04-24T07:03:39;5.15;;;3.67;;
23676;SDS011;31493;49.058;12.190;2023-04-24T07:06:06;5.97;;;3.97;;
23676;SDS011;31493;49.058;12.190;2023-04-24T07:08:34;5.82;;;4.50;;
23676;SDS011;31493;49.058;12.190;2023-04-24T07:11:02;4.57;;;4.00;;
23676;SDS011;31493;49.058;12.190;2023-04-24T07:13:29;4.93;;;3.70;;
23676;SDS011;31493;49.058;12.190;2023-04-24T07:15:56;6.82;;;3.80;;
23676;SDS011;31493;49.058;12.190;2023-04-24T07:18:23;7.32;;;4.20;;
23676;SDS011;31493;49.058;12.190;2023-04-24T07:20:50;6.90;;;3.70;;
23676;SDS011;31493;49.058;12.190;2023-04-24T07:23:19;5.65;;;3.72;;
23676;SDS011;31493;49.058;12.190;2023-04-24T07:28:15;5.38;;;3.60;;
23676;SDS011;31493;49.058;12.190;2023-04-24T07:30:43;6.95;;;3.30;;
23676;SDS011;31493;49.058;12.190;2023-04-24T07:33:10;5.97;;;3.88;;
23676;SDS011;31493;49.058;12.190;2023-04-24T07:35:38;5.00;;;3.07;;
23676;SDS011;31493;49.058;12.190;2023-04-24T07:38:05;5.22;;;3.42;;
23676;SDS011;31493;49.058;12.190;2023-04-24T07:40:32;7.10;;;2.75;;
23676;SDS011;31493;49.058;12.190;2023-04-24T07:43:01;5.38;;;2.60;;
23676;SDS011;31493;49.058;12.190;2023-04-24T07:45:28;6.65;;;2.97;;
23676;SDS011;31493;49.058;12.190;2023-04-24T07:47:56;7.00;;;2.45;;
23676;SDS011;31493;49.058;12.190;2023-04-24T07:50:23;4.38;;;2.28;;
23676;SDS011;31493;49.058;12.190;2023-04-24T07:52:50;4.85;;;2.30;;
23676;SDS011;31493;49.058;12.190;2023-04-24T07:55:17;6.03;;;2.47;;
23676;SDS011;31493;49.058;12.190;2023-04-24T07:57:44;2.45;;;1.95;;
23676;SDS011;31493;49.058;12.190;2023-04-24T08:00:13;6.57;;;2.00;;
23676;SDS011;31493;49.058;12.190;2023-04-24T08:02:41;2.20;;;1.90;;
23676;SDS011;31493;49.058;12.190;2023-04-24T08:05:08;4.72;;;1.85;;
23676;SDS011;31493;49.058;12.190;2023-04-24T08:07:35;4.28;;;2.08;;
23676;SDS011;31493;49.058;12.190;2023-04-24T08:10:03;2.65;;;1.70;;
23676;SDS011;31493;49.058;12.190;2023-04-24T08:12:30;6.55;;;1.58;;
23676;SDS011;31493;49.058;12.190;2023-04-24T08:14:57;7.03;;;1.77;;
23676;SDS011;31493;49.058;12.190;2023-04-24T08:17:26;11.48;;;1.70;;
23676;SDS011;31493;49.058;12.190;2023-04-24T08:19:53;2.75;;;1.33;;
23676;SDS011;31493;49.058;12.190;2023-04-24T08:22:26;1.90;;;1.40;;
23676;SDS011;31493;49.058;12.190;2023-04-24T08:24:53;4.20;;;1.40;;
23676;SDS011;31493;49.058;12.190;2023-04-24T08:27:21;2.60;;;1.27;;
23676;SDS011;31493;49.058;12.190;2023-04-24T08:29:48;2.13;;;1.17;;
23676;SDS011;31493;49.058;12.190;2023-04-24T08:32:16;1.90;;;1.10;;
23676;SDS011;31493;49.058;12.190;2023-04-24T08:34:45;2.53;;;1.25;;
23676;SDS011;31493;49.058;12.190;2023-04-24T08:37:12;6.78;;;1.15;;
23676;SDS011;31493;49.058;12.190;2023-04-24T08:39:39;3.35;;;1.00;;
23676;SDS011;31493;49.058;12.190;2023-04-24T08:42:07;9.98;;;1.13;;
23676;SDS011;31493;49.058;12.190;2023-04-24T08:47:02;1.73;;;0.90;;
23676;SDS011;31493;49.058;12.190;2023-04-24T08:49:29;2.75;;;1.00;;
23676;SDS011;31493;49.058;12.190;2023-04-24T08:51:59;1.98;;;1.25;;
23676;SDS011;31493;49.058;12.190;2023-04-24T08:54:26;1.90;;;1.10;;
23676;SDS011;31493;49.058;12.190;2023-04-24T08:56:55;3.47;;;1.13;;
23676;SDS011;31493;49.058;12.190;2023-04-24T08:59:27;3.42;;;1.20;;
23676;SDS011;31493;49.058;12.190;2023-04-24T09:01:55;4.00;;;1.20;;
23676;SDS011;31493;49.058;12.190;2023-04-24T09:04:26;2.30;;;1.20;;
23676;SDS011;31493;49.058;12.190;2023-04-24T09:06:56;2.42;;;1.20;;
23676;SDS011;31493;49.058;12.190;2023-04-24T09:09:25;1.90;;;1.70;;
23676;SDS011;31493;49.058;12.190;2023-04-24T09:11:55;2.30;;;1.42;;
23676;SDS011;31493;49.058;12.190;2023-04-24T09:14:23;2.65;;;1.50;;
23676;SDS011;31493;49.058;12.190;2023-04-24T09:16:50;2.30;;;1.40;;
23676;SDS011;31493;49.058;12.190;2023-04-24T09:19:17;4.30;;;1.25;;
23676;SDS011;31493;49.058;12.190;2023-04-24T09:21:45;3.75;;;1.52;;
23676;SDS011;31493;49.058;12.190;2023-04-24T09:24:16;1.95;;;1.50;;
23676;SDS011;31493;49.058;12.190;2023-04-24T09:26:47;2.85;;;1.73;;
23676;SDS011;31493;49.058;12.190;2023-04-24T09:29:15;2.65;;;1.75;;
23676;SDS011;31493;49.058;12.190;2023-04-24T09:31:44;4.03;;;1.75;;
23676;SDS011;31493;49.058;12.190;2023-04-24T09:34:11;2.42;;;1.63;;
23676;SDS011;31493;49.058;12.190;2023-04-24T09:36:40;3.78;;;1.70;;
23676;SDS011;31493;49.058;12.190;2023-04-24T09:39:09;2.42;;;1.52;;
23676;SDS011;31493;49.058;12.190;2023-04-24T09:41:43;3.00;;;1.70;;
23676;SDS011;31493;49.058;12.190;2023-04-24T09:44:13;3.40;;;1.60;;
23676;SDS011;31493;49.058;12.190;2023-04-24T09:46:42;1.77;;;1.30;;
23676;SDS011;31493;49.058;12.190;2023-04-24T09:49:11;1.42;;;1.33;;
23676;SDS011;31493;49.058;12.190;2023-04-24T09:51:40;3.25;;;1.15;;
23676;SDS011;31493;49.058;12.190;2023-04-24T09:54:13;1.90;;;1.35;;
23676;SDS011;31493;49.058;12.190;2023-04-24T09:56:42;3.72;;;1.25;;
23676;SDS011;31493;49.058;12.190;2023-04-24T09:59:10;2.58;;;1.20;;
23676;SDS011;31493;49.058;12.190;2023-04-24T10:01:39;1.45;;;1.00;;
23676;SDS011;31493;49.058;12.190;2023-04-24T10:04:15;1.77;;;1.00;;
23676;SDS011;31493;49.058;12.190;2023-04-24T10:06:43;2.80;;;0.90;;
23676;SDS011;31493;49.058;12.190;2023-04-24T10:09:10;2.78;;;1.15;;
23676;SDS011;31493;49.058;12.190;2023-04-24T10:11:41;1.27;;;0.90;;
23676;SDS011;31493;49.058;12.190;2023-04-24T10:14:09;3.58;;;1.10;;
23676;SDS011;31493;49.058;12.190;2023-04-24T10:16:38;1.85;;;1.17;;
23676;SDS011;31493;49.058;12.190;2023-04-24T10:19:06;3.50;;;1.20;;
23676;SDS011;31493;49.058;12.190;2023-04-24T10:21:34;2.17;;;1.00;;
23676;SDS011;31493;49.058;12.190;2023-04-24T10:24:01;1.40;;;1.10;;
23676;SDS011;31493;49.058;12.190;2023-04-24T10:26:30;1.52;;;1.10;;
23676;SDS011;31493;49.058;12.190;2023-04-24T10:28:58;1.80;;;1.10;;
23676;SDS011;31493;49.058;12.190;2023-04-24T10:31:26;1.83;;;1.00;;
23676;SDS011;31493;49.058;12.190;2023-04-24T10:33:58;4.15;;;1.10;;
23676;SDS011;31493;49.058;12.190;2023-04-24T10:36:27;3.95;;;1.48;;
23676;SDS011;31493;49.058;12.190;2023-04-24T10:38:57;2.45;;;1.17;;
23676;SDS011;31493;49.058;12.190;2023-04-24T10:41:26;1.38;;;1.00;;
23676;SDS011;31493;49.058;12.190;2023-04-24T10:44:07;3.17;;;1.05;;
23676;SDS011;31493;49.058;12.190;2023-04-24T10:46:35;1.30;;;1.00;;
23676;SDS011;31493;49.058;12.190;2023-04-24T10:49:04;1.42;;;1.30;;
23676;SDS011;31493;49.058;12.190;2023-04-24T10:51:47;3.05;;;1.00;;
23676;SDS011;31493;49.058;12.190;2023-04-24T10:54:25;1.58;;;1.20;;
23676;SDS011;31493;49.058;12.190;2023-04-24T10:56:53;2.10;;;1.20;;
23676;SDS011;31493;49.058;12.190;2023-04-24T10:59:26;1.52;;;1.10;;
23676;SDS011;31493;49.058;12.190;2023-04-24T11:01:54;1.50;;;1.25;;
23676;SDS011;31493;49.058;12.190;2023-04-24T11:04:32;2.25;;;1.42;;
23676;SDS011;31493;49.058;12.190;2023-04-24T11:09:29;1.90;;;1.25;;
23676;SDS011;31493;49.058;12.190;2023-04-24T11:17:29;5.10;;;1.50;;
23676;SDS011;31493;49.058;12.190;2023-04-24T11:20:02;3.45;;;1.40;;
23676;SDS011;31493;49.058;12.190;2023-04-24T11:22:32;3.20;;;1.08;;
23676;SDS011;31493;49.058;12.190;2023-04-24T11:25:01;1.63;;;1.17;;
23676;SDS011;31493;49.058;12.190;2023-04-24T11:27:30;3.90;;;1.13;;
23676;SDS011;31493;49.058;12.190;2023-04-24T11:29:59;2.67;;;1.20;;
23676;SDS011;31493;49.058;12.190;2023-04-24T11:32:28;2.08;;;1.30;;
23676;SDS011;31493;49.058;12.190;2023-04-24T11:34:57;1.33;;;1.08;;
23676;SDS011;31493;49.058;12.190;2023-04-24T11:37:27;1.60;;;1.20;;
23676;SDS011;31493;49.058;12.190;2023-04-24T11:39:56;3.50;;;1.30;;
23676;SDS011;31493;49.058;12.190;2023-04-24T11:42:25;2.25;;;1.02;;
23676;SDS011;31493;49.058;12.190;2023-04-24T11:44:53;3.35;;;1.48;;
23676;SDS011;31493;49.058;12.190;2023-04-24T11:47:27;2.53;;;1.13;;
23676;SDS011;31493;49.058;12.190;2023-04-24T11:49:54;3.50;;;1.20;;
23676;SDS011;31493;49.058;12.190;2023-04-24T11:52:21;1.95;;;1.25;;
23676;SDS011;31493;49.058;12.190;2023-04-24T11:54:50;2.08;;;1.10;;
23676;SDS011;31493;49.058;12.190;2023-04-24T11:57:18;1.67;;;0.90;;
23676;SDS011;31493;49.058;12.190;2023-04-24T11:59:46;2.10;;;1.00;;
23676;SDS011;31493;49.058;12.190;2023-04-24T12:02:19;2.33;;;1.10;;
23676;SDS011;31493;49.058;12.190;2023-04-24T12:04:47;2.38;;;1.20;;
23676;SDS011;31493;49.058;12.190;2023-04-24T12:07:14;1.55;;;1.10;;
23676;SDS011;31493;49.058;12.190;2023-04-24T12:09:41;7.20;;;1.40;;
23676;SDS011;31493;49.058;12.190;2023-04-24T12:12:11;1.30;;;1.10;;
23676;SDS011;31493;49.058;12.190;2023-04-24T12:14:43;2.13;;;1.20;;
23676;SDS011;31493;49.058;12.190;2023-04-24T12:17:10;3.10;;;1.48;;
23676;SDS011;31493;49.058;12.190;2023-04-24T12:19:37;1.92;;;1.10;;
23676;SDS011;31493;49.058;12.190;2023-04-24T12:22:05;3.15;;;1.60;;
23676;SDS011;31493;49.058;12.190;2023-04-24T12:24:32;1.50;;;1.20;;
23676;SDS011;31493;49.058;12.190;2023-04-24T12:26:59;1.98;;;1.50;;
23676;SDS011;31493;49.058;12.190;2023-04-24T12:29:29;2.33;;;1.10;;
23676;SDS011;31493;49.058;12.190;2023-04-24T12:31:56;2.65;;;1.30;;
23676;SDS011;31493;49.058;12.190;2023-04-24T12:34:23;2.28;;;1.27;;
23676;SDS011;31493;49.058;12.190;2023-04-24T12:36:52;2.55;;;1.35;;
23676;SDS011;31493;49.058;12.190;2023-04-24T12:39:19;2.08;;;1.20;;
23676;SDS011;31493;49.058;12.190;2023-04-24T12:41:55;2.70;;;1.42;;
23676;SDS011;31493;49.058;12.190;2023-04-24T12:44:31;2.53;;;1.30;;
23676;SDS011;31493;49.058;12.190;2023-04-24T12:47:00;2.70;;;1.30;;
23676;SDS011;31493;49.058;12.190;2023-04-24T12:49:27;2.80;;;1.00;;
23676;SDS011;31493;49.058;12.190;2023-04-24T12:51:54;1.73;;;1.30;;
23676;SDS011;31493;49.058;12.190;2023-04-24T12:54:21;1.83;;;1.10;;
23676;SDS011;31493;49.058;12.190;2023-04-24T12:56:48;3.67;;;1.30;;
23676;SDS011;31493;49.058;12.190;2023-04-24T12:59:15;2.20;;;1.00;;
23676;SDS011;31493;49.058;12.190;2023-04-24T13:01:44;2.15;;;1.33;;
23676;SDS011;31493;49.058;12.190;2023-04-24T13:04:11;2.65;;;1.00;;
23676;SDS011;31493;49.058;12.190;2023-04-24T13:06:38;2.63;;;1.30;;
23676;SDS011;31493;49.058;12.190;2023-04-24T13:09:06;1.83;;;1.20;;
23676;SDS011;31493;49.058;12.190;2023-04-24T13:11:33;3.33;;;1.10;;
23676;SDS011;31493;49.058;12.190;2023-04-24T13:14:01;1.38;;;0.90;;
23676;SDS011;31493;49.058;12.190;2023-04-24T13:16:28;6.13;;;0.93;;
23676;SDS011;31493;49.058;12.190;2023-04-24T13:18:56;3.97;;;0.85;;
23676;SDS011;31493;49.058;12.190;2023-04-24T13:21:23;2.35;;;0.80;;
23676;SDS011;31493;49.058;12.190;2023-04-24T13:23:51;5.47;;;0.88;;
23676;SDS011;31493;49.058;12.190;2023-04-24T13:26:18;1.50;;;0.80;;
23676;SDS011;31493;49.058;12.190;2023-04-24T13:28:46;1.10;;;0.80;;
23676;SDS011;31493;49.058;12.190;2023-04-24T13:31:13;1.27;;;0.85;;
23676;SDS011;31493;49.058;12.190;2023-04-24T13:33:40;2.08;;;0.95;;
23676;SDS011;31493;49.058;12.190;2023-04-24T13:36:08;1.30;;;0.80;;
23676;SDS011;31493;49.058;12.190;2023-04-24T13:38:35;3.35;;;1.40;;
23676;SDS011;31493;49.058;12.190;2023-04-24T13:41:02;2.42;;;0.90;;
23676;SDS011;31493;49.058;12.190;2023-04-24T13:43:29;2.13;;;1.00;;
23676;SDS011;31493;49.058;12.190;2023-04-24T13:45:56;2.83;;;1.00;;
23676;SDS011;31493;49.058;12.190;2023-04-24T13:48:24;2.83;;;0.90;;
23676;SDS011;31493;49.058;12.190;2023-04-24T13:50:51;1.75;;;0.80;;
23676;SDS011;31493;49.058;12.190;2023-04-24T13:53:20;3.33;;;0.90;;
23676;SDS011;31493;49.058;12.190;2023-04-24T13:55:47;1.20;;;0.70;;
23676;SDS011;31493;49.058;12.190;2023-04-24T13:58:14;1.63;;;0.90;;
23676;SDS011;31493;49.058;12.190;2023-04-24T14:00:41;3.33;;;0.85;;
23676;SDS011;31493;49.058;12.190;2023-04-24T14:03:08;1.48;;;0.80;;
23676;SDS011;31493;49.058;12.190;2023-04-24T14:05:36;3.65;;;0.98;;
23676;SDS011;31493;49.058;12.190;2023-04-24T14:08:04;1.13;;;0.80;;
23676;SDS011;31493;49.058;12.190;2023-04-24T14:10:33;1.52;;;0.75;;
23676;SDS011;31493;49.058;12.190;2023-04-24T14:13:00;1.88;;;0.85;;
23676;SDS011;31493;49.058;12.190;2023-04-24T14:15:27;1.45;;;0.80;;
23676;SDS011;31493;49.058;12.190;2023-04-24T14:17:54;1.75;;;0.80;;
23676;SDS011;31493;49.058;12.190;2023-04-24T14:20:22;1.42;;;0.80;;
23676;SDS011;31493;49.058;12.190;2023-04-24T14:22:49;1.67;;;1.00;;
23676;SDS011;31493;49.058;12.190;2023-04-24T14:25:16;1.67;;;1.20;;
23676;SDS011;31493;49.058;12.190;2023-04-24T14:27:45;1.13;;;0.95;;
23676;SDS011;31493;49.058;12.190;2023-04-24T14:30:12;1.27;;;1.00;;
23676;SDS011;31493;49.058;12.190;2023-04-24T14:32:41;2.88;;;1.13;;
23676;SDS011;31493;49.058;12.190;2023-04-24T14:35:08;1.75;;;1.23;;
23676;SDS011;31493;49.058;12.190;2023-04-24T14:37:35;2.20;;;1.23;;
23676;SDS011;31493;49.058;12.190;2023-04-24T14:40:02;1.90;;;1.20;;
23676;SDS011;31493;49.058;12.190;2023-04-24T14:42:32;2.25;;;1.30;;
23676;SDS011;31493;49.058;12.190;2023-04-24T14:45:01;2.97;;;1.30;;
23676;SDS011;31493;49.058;12.190;2023-04-24T14:47:28;2.88;;;1.40;;
23676;SDS011;31493;49.058;12.190;2023-04-24T14:49:55;1.52;;;1.17;;
23676;SDS011;31493;49.058;12.190;2023-04-24T14:52:22;2.40;;;1.35;;